Rodolfo Marquez

Recruteur en chef - Club America
19 Août 2027
Jeudi
Processus

Personnalité

Adaptabilité (10) Ambition (10) Controverse (16) Loyauté (5) Pression (8) Professionnalisme (2) Sportivité (5) Tempérament (9)

Profil

Style d'entraînement Démocratique
Diplôme Continental Pro
Détermination 13
Gestion des joueurs 12
Motivation 7
Discipline 9
Satisfaction professionnelle
65%
Fatigue
0%
Rôle Recruteur en chef
Salaire 49.8K p/s
Contrat 14.03.2030

Performance

Comportement Bon
Efficacité de l'entraînement
34%
Développement des joueurs
60%
Prévention des blessures
45%
Mise en place tactique
70%

Événements récents

A participé à une réunion de recrutement maintenant
A recommandé une cible de transfert maintenant
A recommandé une cible de transfert maintenant
A recommandé une cible de transfert maintenant
A recommandé une cible de transfert maintenant
A recommandé une cible de transfert maintenant
A recommandé une cible de transfert maintenant
A évalué un joueur maintenant

Suivi en cours

259
Joueur Club Statut Capacité Confiance Observé Dernière observation Dernier vote
Lukáš Horníček Newcastle United Actif 150 / 156 40% 2 18.08.2027 -
Vanja Milinković-Savić Torino Actif 153 / 151 40% 2 18.08.2027 -
Lucas Perri Leeds United Actif 149 / 147 40% 1 18.08.2027 -
Erick Reyes Toluca Actif 147 / 150 40% 4 17.08.2027 -
Caoimhin Kelleher Brentford Actif 153 / 162 40% 3 17.08.2027 -
Michele Di Gregorio Juventus Actif 158 / 152 40% 3 17.08.2027 -
Anatolii Trubin Juventus Actif 165 / 166 40% 2 16.08.2027 -
Rodrigo Schlegel Atlas Actif 118 / 113 72% 1 16.08.2027 Approuver
Senne Lammens Manchester United Actif 155 / 150 40% 1 16.08.2027 -
Aaron Ramsdale Southampton Actif 145 / 147 40% 3 15.08.2027 -
Diogo Costa Manchester City Actif 173 / 171 40% 1 15.08.2027 -
Julen Agirrezabala Racing Santander Actif 151 / 158 40% 2 13.08.2027 -
Giorgi Mamardashvili Newcastle United Actif 164 / 165 40% 1 13.08.2027 -
Stanislav Agkatsev Sunderland Refusé 146 / 151 66% 2 08.08.2027 Refuser
Tomoki Hayakawa Kashima Antlers Actif 146 / 135 40% 1 08.08.2027 -
Antonio Sivera Alavés Actif 146 / 147 40% 2 07.08.2027 -
James Trafford Leeds United Actif 154 / 144 40% 2 06.08.2027 -
Radek Vítek Middlesbrough Actif 146 / 148 40% 2 06.08.2027 -
Maduka Okoye Udinese Actif 147 / 144 40% 1 06.08.2027 -
Alexander Nübel Besiktas Actif 160 / 134 40% 4 05.08.2027 -
Arnau Tenas Villarreal Actif 153 / 151 40% 1 05.08.2027 -
Alex Meret Napoli Actif 153 / 149 40% 2 04.08.2027 -
Andriy Lunin Real Madrid Actif 157 / 158 40% 1 04.08.2027 -
Unai Simón Athletic Bilbao Actif 171 / 164 40% 1 03.08.2027 -
Mike Maignan AC Milan Actif 164 / 172 40% 2 24.07.2027 -
Kostantis Tzolakis Hull City Actif 143 / 155 40% 2 22.07.2027 -
Berke Özer LOSC Lille Actif 145 / 142 40% 1 22.07.2027 -
Dominik Greif Olympique Lyonnais Actif 149 / 152 40% 2 19.07.2027 -
Álvaro Fernández Mallorca Actif 139 / 137 40% 1 19.07.2027 -
Alex Robertson Cardiff City Actif 123 / 132 40% 2 18.07.2027 -
Tyreece Campbell Charlton Athletic Actif 125 / 118 40% 2 18.07.2027 -
Ale García Las Palmas Actif 130 / 124 40% 1 18.07.2027 -
Lewis Bate Stockport County Actif 128 / 116 40% 1 17.07.2027 -
Juan Mosquera Sheffield Wednesday Actif 133 / 136 40% 1 17.07.2027 -
Álex Lizancos Burgos Actif 125 / 130 40% 1 17.07.2027 -
Aleix Garrido Eibar Actif 126 / 130 40% 2 16.07.2027 -
Kellen Fisher Norwich City Actif 123 / 120 40% 1 16.07.2027 -
Pau Casadesús Granada Actif 119 / 123 40% 1 16.07.2027 -
Jindřich Staněk KAA Gent Perdu 137 / 133 40% 1 16.07.2027 -
Kepa Arrizabalaga Arsenal Actif 152 / 160 40% 1 15.07.2027 -
Justin Bijlow Genoa Actif 150 / 151 40% 1 15.07.2027 -
Cian Ashford Cardiff City Actif 118 / 123 40% 1 13.07.2027 -
Oscar Schwartau Norwich City Actif 125 / 133 40% 1 13.07.2027 -
Dani Lorenzo Málaga Actif 129 / 127 40% 2 11.07.2027 -
Bosun Lawal Stoke City Actif 129 / 133 40% 1 11.07.2027 -
Aidomo Emakhu Oxford United Actif 121 / 124 40% 1 11.07.2027 -
Fer López Wolverhampton Actif 135 / 131 40% 1 09.07.2027 -
Brodie Spencer Oxford United Actif 126 / 132 40% 1 09.07.2027 -
Isaac Price West Bromwich Albion Actif 127 / 128 40% 2 08.07.2027 -
Karl Etta Eyong Levante Actif 145 / 148 40% 1 08.07.2027 -
Nikita Haikin Standard Liege Perdu 143 / 145 40% 1 06.07.2027 -
Carlos Moreno Pachuca Actif 132 / 140 40% 1 06.07.2027 -
Dean Henderson Crystal Palace Actif 153 / 152 40% 2 03.07.2027 -
Nikola Vasilj Al-Diriyah Perdu 146 / 149 40% 1 03.07.2027 -
Predrag Rajković Racing Genk Actif 147 / 145 40% 2 01.07.2027 -
Raúl Rangel Sporting CP Actif 138 / 146 40% 1 29.06.2027 -
Uğurcan Çakır Braga Actif 143 / 136 40% 1 29.06.2027 -
Bento Al-Nassr Actif 128 / 148 40% 1 28.06.2027 -
Augusto Batalla Rayo Vallecano Actif 150 / 135 40% 1 28.06.2027 -
Guillaume Restes Toulouse FC Actif 141 / 142 40% 1 28.06.2027 -
Nikita Haikin Standard Liege Perdu 141 / 135 40% 1 17.06.2027 -
Robin Roefs Sunderland Actif 150 / 157 40% 1 17.06.2027 -
Keisuke Osako Sanfrecce Hiroshima Actif 136 / 131 40% 1 17.06.2027 -
Mads Hermansen West Ham United Actif 143 / 134 40% 1 16.06.2027 -
Félix Lemaréchal Club Brugge Actif 141 / 132 40% 4 14.06.2027 -
Abdul Fatawu Leicester City Actif 136 / 132 40% 1 14.06.2027 -
Jayden Addai Como Actif 132 / 130 40% 1 14.06.2027 -
Alex Lowry Wycombe Wanderers Actif 114 / 119 40% 2 11.06.2027 -
Tomáš Rigo Stoke City Actif 128 / 125 40% 1 11.06.2027 -
Malik Mothersille Stockport County Actif 109 / 118 40% 1 11.06.2027 -
Williams Manyama SuperSport United Actif 126 / 132 40% 2 10.06.2027 -
Richard Koné Queens Park Rangers Actif 119 / 132 40% 2 09.06.2027 -
Sidny Lopes Cabral Trabzonspor Actif 138 / 137 40% 3 09.06.2027 -
Toby Collyer West Bromwich Albion Actif 135 / 132 40% 6 08.06.2027 -
Caleb Yirenkyi Coventry City Actif 142 / 144 40% 2 08.06.2027 -
Jayden Nelson Bolton Wanderers Actif 116 / 117 40% 2 08.06.2027 -
Cher Ndour Fiorentina Actif 138 / 131 40% 5 07.06.2027 -
George Earthy Reading Actif 119 / 118 40% 1 07.06.2027 -
Jonás Luna Santa Clara Actif 121 / 124 40% 2 05.06.2027 -
Othmane Maamma Watford Actif 130 / 132 40% 1 05.06.2027 -
Christos Mouzakitis Hull City Actif 136 / 142 40% 3 04.06.2027 -
Ilyas Ansah Hull City Actif 128 / 132 40% 5 01.06.2027 -
Jacques Ekomié Wrexham Actif 126 / 130 40% 3 01.06.2027 -
Sampson Dweh Anderlecht Négociation 133 / 134 66% 1 01.06.2027 Approuver
Nicolás Fernández Mercau Shakhtar Actif 134 / 134 90% 1 01.06.2027 Approuver
Luís Esteves Atlas Rapport prêt 136 / 123 72% 1 01.06.2027 Approuver
Leif Davis Ipswich Town Actif 135 / 129 40% 4 31.05.2027 -
Francisco Moura Lusitânia Lourosa Actif 144 / 137 40% 1 31.05.2027 -
Hwang Hee-Chan Wolverhampton Actif 139 / 138 40% 3 29.05.2027 -
Diego Lainez Tigres Perdu 135 / 135 40% 4 28.05.2027 -
Thierry Rendall Correia Venezia Actif 139 / 131 40% 1 28.05.2027 -
Javier Mena Portimonense Actif 120 / 122 40% 1 28.05.2027 -
Hany Mukhtar Spezia Actif 134 / 137 40% 4 26.05.2027 -
Aron Dønnum Toulouse FC Actif 136 / 133 40% 1 26.05.2027 -
John McGinn Aston Villa Actif 145 / 151 40% 8 25.05.2027 -
Bertrand Traoré Sunderland Actif 135 / 140 40% 7 24.05.2027 -
Welington Southampton Actif 129 / 137 40% 7 22.05.2027 -
Sebastián Córdova Pumas UNAM Actif 132 / 127 40% 5 22.05.2027 -
Azor Matusiwa Ipswich Town Actif 141 / 139 40% 2 22.05.2027 -
Adam Randell Bristol City Actif 130 / 130 40% 2 21.05.2027 -
Florentino Luís Ipswich Town Actif 136 / 132 40% 4 21.05.2027 -
Edoardo Bove Watford Actif 136 / 138 40% 1 21.05.2027 -
Bright Arrey-Mbi Braga Actif 129 / 129 40% 1 20.05.2027 -
Will Smallbone Southampton Actif 130 / 131 40% 1 19.05.2027 -
Jesús Ricardo Angulo Toluca Actif 130 / 141 40% 2 17.05.2027 -
Marcelo Allende Mamelodi Sundowns Actif 125 / 125 40% 4 16.05.2027 -
Takumi Minamino Monaco Actif 145 / 135 40% 1 16.05.2027 -
Domenico Berardi Sassuolo Actif 141 / 147 40% 1 14.05.2027 -
Gerardo Arteaga Monterrey Actif 135 / 120 40% 3 13.05.2027 -
Saša Lukić Ipswich Town Actif 138 / 132 40% 2 11.05.2027 -
Piotr Zieliński Inter Actif 149 / 152 40% 3 08.05.2027 -
Adrián Bernabé Parma Actif 141 / 132 40% 2 05.05.2027 -
Pepê Porto Actif 141 / 149 40% 3 05.05.2027 -
Mamadou Sangaré Brentford Actif 145 / 141 40% 1 05.05.2027 -
Ilias Akhomach Villarreal Actif 139 / 149 40% 2 02.05.2027 -
Idrissa Touré Monza Actif 132 / 140 40% 1 02.05.2027 -
Che Adams Torino Actif 145 / 132 40% 2 01.05.2027 -
Ollie Tanner Cardiff City Actif 117 / 108 40% 1 01.05.2027 -
Ethan Galbraith Swansea City Actif 132 / 138 40% 5 28.04.2027 -
Andrea Carboni Monza Actif 129 / 121 40% 4 27.04.2027 -
Shea Charles Southampton Actif 139 / 130 40% 4 27.04.2027 -
Tomáš Souček West Ham United Actif 137 / 131 40% 2 27.04.2027 -
Fredrik Aursnes Benfica Actif 149 / 156 40% 1 27.04.2027 -
Kenny Tete Fulham Actif 145 / 146 40% 1 24.04.2027 -
Leon Goretzka Aston Villa Actif 153 / 161 40% 1 22.04.2027 -
Víctor Gómez Braga Actif 145 / 147 40% 1 22.04.2027 -
Luke McNally Bristol City Actif 132 / 129 40% 1 22.04.2027 -
Oussama Idrissi Pachuca Actif 143 / 139 40% 2 19.04.2027 -
Milan van Ewijk Mansfield Town Actif 131 / 127 40% 4 18.04.2027 -
Jesús Gallardo Toluca Actif 143 / 125 40% 1 14.04.2027 -
Leon Bailey Olympiacos Actif 135 / 139 40% 2 11.04.2027 -
Yoane Wissa Newcastle United Actif 143 / 145 40% 1 07.04.2027 -
Nobel Mendy Hull City Actif 136 / 139 40% 1 06.04.2027 -
Filippo Ranocchia Palermo Actif 131 / 136 40% 1 06.04.2027 -
Razvan Balasa Crvena Zvezda Négociation 150 / 134 40% 6 04.04.2027 -
Toni Fruk KV Mechelen Actif 131 / 125 40% 3 31.03.2027 Observer
Ryan Christie Bournemouth Actif 144 / 150 40% 2 28.03.2027 -
Tariq Lamptey Queens Park Rangers Actif 130 / 140 40% 3 27.03.2027 -
Harry Clarke Preston Actif 130 / 132 40% 3 27.03.2027 -
Orbelín Pineda Monterrey Actif 143 / 136 40% 2 26.03.2027 -
Leroy Sané Galatasaray Actif 163 / 172 40% 3 24.03.2027 -
Callum Doyle Wrexham Actif 136 / 130 40% 3 24.03.2027 -
Ronnie Edwards Queens Park Rangers Actif 124 / 131 40% 1 24.03.2027 -
Václav Černý Besiktas Actif 146 / 147 40% 1 22.03.2027 -
Mattéo Guendouzi Fenerbahce Actif 145 / 164 40% 2 20.03.2027 -
Christian Krasnodar Actif 145 / 127 40% 4 20.03.2027 -
Rubens Dinamo Moscow Actif 134 / 131 40% 1 19.03.2027 -
Víctor Guzmán Monterrey Actif 131 / 141 40% 2 16.03.2027 -
Max Bird Birmingham Actif 128 / 133 40% 1 16.03.2027 -
Tiago Djaló Besiktas Actif 132 / 130 40% 1 15.03.2027 -
Malcom Al Jazira Actif 146 / 160 40% 1 14.03.2027 -
Pedrinho Shakhtar Actif 146 / 141 40% 1 09.03.2027 -
Kerem Aktürkoğlu Fenerbahce Actif 142 / 142 40% 1 09.03.2027 -
Nicolas Madsen Queens Park Rangers Actif 132 / 127 40% 2 08.03.2027 -
Sorba Thomas Stoke City Actif 132 / 127 40% 1 07.03.2027 -
Mohamed-Ali Cho Hull City Actif 140 / 135 40% 1 06.03.2027 -
Oleksandr Zubkov AEK Actif 128 / 143 40% 1 03.03.2027 -
Nahuel Tenaglia Tigres Actif 144 / 124 40% 1 03.03.2027 -
Freddie Potts Club Brugge Actif 125 / 138 40% 1 03.03.2027 -
Aidan Morris Middlesbrough Actif 134 / 134 40% 3 02.03.2027 -
Christos Zafeiris Tigres Actif 136 / 137 40% 1 02.03.2027 -
Lukáš Červ Viktoria Plzen Actif 124 / 136 40% 1 28.02.2027 -
Ilay Camara Anderlecht Actif 134 / 127 40% 5 22.02.2027 -
Jordan Beyer Burnley Actif 135 / 139 40% 1 22.02.2027 -
Imrân Louza Watford Actif 136 / 125 40% 1 21.02.2027 -
Gustavo Puerta Olympiacos Actif 139 / 130 40% 1 20.02.2027 -
Habib Diarra Sunderland Actif 135 / 140 40% 2 18.02.2027 -
Dara O'Shea Ipswich Town Actif 142 / 143 40% 2 17.02.2027 -
Alexandr Chernikov Krasnodar Actif 129 / 129 40% 2 15.02.2027 -
Aiham Ousou Charleroi Actif 130 / 125 40% 1 12.02.2027 -
Anel Ahmedhodžić Burnley Actif 131 / 126 40% 1 09.02.2027 -
Nadir Zortea Bologna Actif 132 / 143 40% 1 09.02.2027 -
Fidel Ambríz Monterrey Actif 122 / 129 40% 1 08.02.2027 -
Marlon Gomes Shakhtar Actif 129 / 137 40% 1 06.02.2027 -
Jacob Greaves Ipswich Town Actif 130 / 131 40% 1 03.02.2027 -
Oliver Skipp Leicester City Actif 138 / 129 40% 1 01.02.2027 -
Mandla Mahlangu Ajax Cape Town Actif 112 / 118 40% 3 16.01.2027 -
Majid Beiranvand Rah Ahan Actif 111 / 110 40% 1 16.01.2027 -
Zeki Amdouni Burnley Actif 131 / 125 40% 1 16.01.2027 -
Nicolò Tresoldi Club Brugge Actif 131 / 144 40% 8 15.01.2027 -
Dom Ballard Leyton Orient Actif 111 / 130 40% 3 15.01.2027 -
Bamba Dieng Crvena Zvezda Actif 137 / 121 40% 3 15.01.2027 -
Nahuel Ulariaga Hapoel Beer Sheva Actif 128 / 122 40% 3 14.01.2027 -
Jesús Angulo Tigres Actif 128 / 131 40% 1 11.01.2027 -
Xaver Schlager Nottingham Forest Actif 151 / 149 40% 1 11.01.2027 -
Barış Alper Yılmaz Galatasaray Actif 159 / 152 40% 1 10.01.2027 -
George Hirst Stoke City Actif 138 / 141 40% 3 09.01.2027 -
Shahriar Dejagah Tractor Actif 123 / 110 40% 1 09.01.2027 -
Evidence Makgopa Orlando Pirates Actif 115 / 106 40% 1 09.01.2027 -
Cameron Archer Southampton Actif 126 / 131 40% 2 07.01.2027 -
Marvin Keller Bayer Leverkusen Négociation 136 / 137 67% 1 01.01.2027 Approuver
Luiz Henrique West Ham United Actif 142 / 143 68% 1 01.01.2027 Approuver
Marco Asensio Fenerbahce Actif 149 / 144 40% 1 31.12.2026 -
Pedro Porro Tottenham Actif 147 / 143 40% 1 31.12.2026 -
Nicolás Cordero Aldosivi Actif 115 / 109 40% 4 30.12.2026 -
Lassina Traoré Shakhtar Actif 121 / 103 40% 3 29.12.2026 -
Alexis Cuello San Lorenzo Actif 123 / 120 40% 12 27.12.2026 -
Etiosa Ighodaro Kaizer Chiefs Actif 101 / 95 40% 4 26.12.2026 -
Duk Atlas Actif 112 / 123 40% 1 26.12.2026 -
Themba Ngcobo SuperSport United Actif 115 / 124 40% 6 25.12.2026 -
Robert Mizo Ashanti Gold Actif 105 / 93 40% 1 24.12.2026 -
Rodrigo Soria Vorskla Actif 98 / 99 40% 1 23.12.2026 -
Agustín Módica Gimnasia y Esgrima Actif 118 / 127 40% 9 22.12.2026 -
Manuel Ospina Cortulua Actif 126 / 127 40% 2 22.12.2026 -
Brayan León Mamelodi Sundowns Actif 109 / 122 40% 1 22.12.2026 -
Adnan Courtois KV Oostende Actif 135 / 136 40% 5 20.12.2026 -
Yago Santiago Racing Santander Actif 122 / 119 40% 1 20.12.2026 -
Tommy Conway Middlesbrough Actif 126 / 119 40% 3 17.12.2026 Observer
Tyrese Campbell Sheffield United Actif 127 / 129 40% 1 15.12.2026 -
Ozziel Herrera Tigres Actif 135 / 117 40% 3 13.12.2026 -
Tomás González Piast Actif 125 / 133 40% 4 09.12.2026 -
Yousef Salech Cardiff City Actif 133 / 118 40% 2 24.11.2026 -
Luca Martínez Dupuy Godoy Cruz Actif 120 / 125 40% 3 23.11.2026 -
Lorent Tolaj Plymouth Argyle Actif 112 / 123 40% 3 21.11.2026 -
Alan Velasco Boca Juniors Actif 131 / 134 40% 1 20.11.2026 -
Santiago Sala Güemes Actif 113 / 121 40% 2 19.11.2026 -
Mauro Valiente Estudiantes Actif 113 / 118 40% 2 16.11.2026 -
Aune Heggebø West Bromwich Albion Actif 129 / 132 40% 1 16.11.2026 -
Ruben van Bommel Ferencvaros Actif 124 / 131 40% 1 13.11.2026 -
Ramiro Ruiz Rodríguez Atlético Tucumán Actif 124 / 118 40% 6 10.11.2026 -
Agustín Venezia Iquique Actif 110 / 121 40% 2 07.11.2026 -
Misael Sosa Godoy Cruz Actif 110 / 116 40% 1 06.11.2026 -
Fabricio Rojas Gimnasia y Tiro Actif 113 / 100 40% 2 03.11.2026 -
Wessam Abou Ali Columbus Crew Actif 137 / 119 40% 1 02.11.2026 -
Thiago Calone All Boys Actif 115 / 116 40% 1 28.10.2026 -
Alejo Cruz Juventud Actif 122 / 122 40% 2 26.10.2026 -
Carlos Gugenheim Almirante Brown Actif 112 / 113 40% 3 23.10.2026 -
Alexander Díaz Deportivo Riestra Actif 123 / 125 40% 3 20.10.2026 -
José Barreto Quilmes Actif 113 / 108 40% 1 20.10.2026 -
Enzo Avaro Odd Actif 113 / 101 40% 1 18.10.2026 -
Augusto Berrondo Tristán Suárez Actif 115 / 117 40% 1 17.10.2026 -
Gonzalo Flores Almirante Brown Actif 103 / 121 40% 1 17.10.2026 -
Kévin Denkey FC Cincinnati Actif 134 / 136 40% 1 16.10.2026 -
Axel Pérez NK Domzale Actif 104 / 102 40% 3 11.10.2026 -
Emiliano Saliadarre Miramar Misiones Actif 104 / 103 40% 1 10.10.2026 -
Renzo Reynaga Patronato Actif 104 / 116 40% 1 06.10.2026 -
Agustín Ruberto River Plate Actif 114 / 116 40% 1 06.10.2026 -
Santiago Apa All Boys Actif 116 / 100 40% 2 05.10.2026 -
Agustín Paz Progreso Actif 117 / 113 40% 1 04.10.2026 -
Bruno Larregui Juventud Actif 122 / 127 40% 1 01.10.2026 -
Matías Sosa Arsenal Actif 106 / 112 40% 1 01.10.2026 -
Justo Giani Universidad Catolica Actif 124 / 130 40% 1 27.09.2026 -
Luciano Cosentino Wanderers Actif 128 / 116 40% 1 27.09.2026 -
Lucas Carrizo Plaza Colonia Actif 105 / 119 40% 1 23.09.2026 -
Cheikh Sabaly Vancouver Whitecaps Actif 124 / 134 40% 2 21.09.2026 -
Kein Sato FC Tokyo Actif 140 / 142 40% 1 21.09.2026 -
Mateusz Bogusz Houston Dynamo Actif 130 / 137 40% 1 21.09.2026 -
Victor Olatunji Real Salt Lake Actif 116 / 107 40% 2 18.09.2026 -
Rafael Navarro St. Louis CITY SC Actif 124 / 127 40% 1 16.09.2026 -
Ayoub Jabbari FC Cincinnati Actif 106 / 101 40% 1 14.09.2026 -
Manfred Ugalde Spartak Moscow Actif 124 / 119 40% 1 11.09.2026 -
Juan Francisco Rossel Universidad Catolica Actif 88 / 89 40% 1 09.09.2026 -
Maximiliano Rodríguez Huachipato Actif 110 / 111 40% 1 09.09.2026 -
Tomás Chancalay Minnesota United FC Actif 121 / 128 40% 1 09.09.2026 -
Diego Valencia Universidad Catolica Actif 103 / 102 40% 1 08.09.2026 -
Marcelo Fernández Libertad Actif 111 / 115 40% 1 07.09.2026 -
Elías Ovelar Dinamo Brest Actif 87 / 83 40% 1 07.09.2026 -
Wendel Zenit Actif 152 / 145 40% 1 03.08.2026 -
Roland Sallai Galatasaray Actif 126 / 124 40% 1 03.08.2026 -